sensor_id;sensor_type;location;lat;lon;timestamp;temperature;humidity
9762;DHT22;4920;49.594;11.022;2024-03-06T00:01:41;7.60;99.90
9762;DHT22;4920;49.594;11.022;2024-03-06T00:04:12;7.60;99.90
9762;DHT22;4920;49.594;11.022;2024-03-06T00:06:44;7.60;99.90
9762;DHT22;4920;49.594;11.022;2024-03-06T00:09:13;7.50;99.90
9762;DHT22;4920;49.594;11.022;2024-03-06T00:11:42;7.60;99.90
9762;DHT22;4920;49.594;11.022;2024-03-06T00:14:11;7.60;99.90
9762;DHT22;4920;49.594;11.022;2024-03-06T00:16:42;7.60;99.90
9762;DHT22;4920;49.594;11.022;2024-03-06T00:19:13;7.60;99.90
9762;DHT22;4920;49.594;11.022;2024-03-06T00:21:42;7.50;99.90
9762;DHT22;4920;49.594;11.022;2024-03-06T00:24:11;7.50;99.90
9762;DHT22;4920;49.594;11.022;2024-03-06T00:26:41;7.50;99.90
9762;DHT22;4920;49.594;11.022;2024-03-06T00:29:11;7.50;99.90
9762;DHT22;4920;49.594;11.022;2024-03-06T00:31:42;7.50;99.90
9762;DHT22;4920;49.594;11.022;2024-03-06T00:34:13;7.50;99.90
9762;DHT22;4920;49.594;11.022;2024-03-06T00:36:43;7.50;99.90
9762;DHT22;4920;49.594;11.022;2024-03-06T00:39:12;7.50;99.90
9762;DHT22;4920;49.594;11.022;2024-03-06T00:41:42;7.50;99.90
9762;DHT22;4920;49.594;11.022;2024-03-06T00:44:10;7.50;99.90
9762;DHT22;4920;49.594;11.022;2024-03-06T00:46:39;7.50;99.90
9762;DHT22;4920;49.594;11.022;2024-03-06T00:49:09;7.50;99.90
9762;DHT22;4920;49.594;11.022;2024-03-06T00:51:39;7.60;99.90
9762;DHT22;4920;49.594;11.022;2024-03-06T00:54:15;7.60;99.90
9762;DHT22;4920;49.594;11.022;2024-03-06T00:56:44;7.60;99.90
9762;DHT22;4920;49.594;11.022;2024-03-06T00:59:13;7.60;99.90
9762;DHT22;4920;49.594;11.022;2024-03-06T01:01:42;7.60;99.90
9762;DHT22;4920;49.594;11.022;2024-03-06T01:04:12;7.60;99.90
9762;DHT22;4920;49.594;11.022;2024-03-06T01:06:42;7.60;99.90
9762;DHT22;4920;49.594;11.022;2024-03-06T01:09:11;7.60;99.90
9762;DHT22;4920;49.594;11.022;2024-03-06T01:11:40;7.70;99.90
9762;DHT22;4920;49.594;11.022;2024-03-06T01:14:09;7.70;99.90
9762;DHT22;4920;49.594;11.022;2024-03-06T01:16:38;7.70;99.90
9762;DHT22;4920;49.594;11.022;2024-03-06T01:19:07;7.70;99.90
9762;DHT22;4920;49.594;11.022;2024-03-06T01:21:35;7.70;99.90
9762;DHT22;4920;49.594;11.022;2024-03-06T01:24:06;7.80;99.90
9762;DHT22;4920;49.594;11.022;2024-03-06T01:26:35;7.80;99.90
9762;DHT22;4920;49.594;11.022;2024-03-06T01:29:04;7.70;99.90
9762;DHT22;4920;49.594;11.022;2024-03-06T01:31:33;7.70;99.90
9762;DHT22;4920;49.594;11.022;2024-03-06T01:34:01;7.70;99.90
9762;DHT22;4920;49.594;11.022;2024-03-06T01:36:30;7.60;99.90
9762;DHT22;4920;49.594;11.022;2024-03-06T01:39:00;7.70;99.90
9762;DHT22;4920;49.594;11.022;2024-03-06T01:41:31;7.60;99.90
9762;DHT22;4920;49.594;11.022;2024-03-06T01:44:00;7.70;99.90
9762;DHT22;4920;49.594;11.022;2024-03-06T01:46:31;7.70;99.90
9762;DHT22;4920;49.594;11.022;2024-03-06T01:48:59;7.70;99.90
9762;DHT22;4920;49.594;11.022;2024-03-06T01:51:30;7.60;99.90
9762;DHT22;4920;49.594;11.022;2024-03-06T01:54:01;7.60;99.90
9762;DHT22;4920;49.594;11.022;2024-03-06T01:56:34;7.50;99.90
9762;DHT22;4920;49.594;11.022;2024-03-06T01:59:04;7.50;99.90
9762;DHT22;4920;49.594;11.022;2024-03-06T02:01:33;7.50;99.90
9762;DHT22;4920;49.594;11.022;2024-03-06T02:04:03;7.40;99.90
9762;DHT22;4920;49.594;11.022;2024-03-06T02:06:32;7.40;99.90
9762;DHT22;4920;49.594;11.022;2024-03-06T02:09:02;7.40;99.90
9762;DHT22;4920;49.594;11.022;2024-03-06T02:11:33;7.30;99.90
9762;DHT22;4920;49.594;11.022;2024-03-06T02:14:02;7.30;99.90
9762;DHT22;4920;49.594;11.022;2024-03-06T02:16:31;7.30;99.90
9762;DHT22;4920;49.594;11.022;2024-03-06T02:19:00;7.30;99.90
9762;DHT22;4920;49.594;11.022;2024-03-06T02:21:30;7.20;99.90
9762;DHT22;4920;49.594;11.022;2024-03-06T02:24:00;7.20;99.90
9762;DHT22;4920;49.594;11.022;2024-03-06T02:26:29;7.20;99.90
9762;DHT22;4920;49.594;11.022;2024-03-06T02:28:58;7.10;99.90
9762;DHT22;4920;49.594;11.022;2024-03-06T02:31:27;7.10;99.90
9762;DHT22;4920;49.594;11.022;2024-03-06T02:33:55;7.10;99.90
9762;DHT22;4920;49.594;11.022;2024-03-06T02:36:25;7.00;99.90
9762;DHT22;4920;49.594;11.022;2024-03-06T02:38:56;7.00;99.90
9762;DHT22;4920;49.594;11.022;2024-03-06T02:41:25;6.90;99.90
9762;DHT22;4920;49.594;11.022;2024-03-06T02:43:54;6.90;99.90
9762;DHT22;4920;49.594;11.022;2024-03-06T02:46:23;6.90;99.90
9762;DHT22;4920;49.594;11.022;2024-03-06T02:48:52;6.80;99.90
9762;DHT22;4920;49.594;11.022;2024-03-06T02:51:20;6.80;99.90
9762;DHT22;4920;49.594;11.022;2024-03-06T02:53:49;6.90;99.90
9762;DHT22;4920;49.594;11.022;2024-03-06T02:56:22;6.90;99.90
9762;DHT22;4920;49.594;11.022;2024-03-06T02:58:51;6.90;99.90
9762;DHT22;4920;49.594;11.022;2024-03-06T03:01:20;6.90;99.90
9762;DHT22;4920;49.594;11.022;2024-03-06T03:03:49;6.80;99.90
9762;DHT22;4920;49.594;11.022;2024-03-06T03:06:18;6.80;99.90
9762;DHT22;4920;49.594;11.022;2024-03-06T03:08:47;6.90;99.90
9762;DHT22;4920;49.594;11.022;2024-03-06T03:11:16;6.90;99.90
9762;DHT22;4920;49.594;11.022;2024-03-06T03:13:47;6.90;99.90
9762;DHT22;4920;49.594;11.022;2024-03-06T03:16:16;7.00;99.90
9762;DHT22;4920;49.594;11.022;2024-03-06T03:18:46;6.90;99.90
9762;DHT22;4920;49.594;11.022;2024-03-06T03:21:16;7.00;99.90
9762;DHT22;4920;49.594;11.022;2024-03-06T03:23:45;7.00;99.90
9762;DHT22;4920;49.594;11.022;2024-03-06T03:26:14;7.00;99.90
9762;DHT22;4920;49.594;11.022;2024-03-06T03:28:43;6.90;99.90
9762;DHT22;4920;49.594;11.022;2024-03-06T03:31:14;6.90;99.90
9762;DHT22;4920;49.594;11.022;2024-03-06T03:33:43;6.90;99.90
9762;DHT22;4920;49.594;11.022;2024-03-06T03:36:12;6.90;99.90
9762;DHT22;4920;49.594;11.022;2024-03-06T03:38:41;6.90;99.90
9762;DHT22;4920;49.594;11.022;2024-03-06T03:41:10;6.90;99.90
9762;DHT22;4920;49.594;11.022;2024-03-06T03:43:40;6.90;99.90
9762;DHT22;4920;49.594;11.022;2024-03-06T03:46:09;6.90;99.90
9762;DHT22;4920;49.594;11.022;2024-03-06T03:48:40;6.90;99.90
9762;DHT22;4920;49.594;11.022;2024-03-06T03:51:09;6.90;99.90
9762;DHT22;4920;49.594;11.022;2024-03-06T03:53:38;7.00;99.90
9762;DHT22;4920;49.594;11.022;2024-03-06T03:56:07;7.00;99.90
9762;DHT22;4920;49.594;11.022;2024-03-06T03:58:36;7.10;99.90
9762;DHT22;4920;49.594;11.022;2024-03-06T04:01:05;7.10;99.90
9762;DHT22;4920;49.594;11.022;2024-03-06T04:03:33;7.10;99.90
9762;DHT22;4920;49.594;11.022;2024-03-06T04:06:05;7.10;99.90
9762;DHT22;4920;49.594;11.022;2024-03-06T04:08:34;7.20;99.90
9762;DHT22;4920;49.594;11.022;2024-03-06T04:11:04;7.20;99.90
9762;DHT22;4920;49.594;11.022;2024-03-06T04:13:37;7.20;99.90
9762;DHT22;4920;49.594;11.022;2024-03-06T04:16:06;7.20;99.90
9762;DHT22;4920;49.594;11.022;2024-03-06T04:18:35;7.30;99.90
9762;DHT22;4920;49.594;11.022;2024-03-06T04:21:06;7.30;99.90
9762;DHT22;4920;49.594;11.022;2024-03-06T04:23:37;7.30;99.90
9762;DHT22;4920;49.594;11.022;2024-03-06T04:26:06;7.30;99.90
9762;DHT22;4920;49.594;11.022;2024-03-06T04:28:35;7.30;99.90
9762;DHT22;4920;49.594;11.022;2024-03-06T04:31:04;7.30;99.90
9762;DHT22;4920;49.594;11.022;2024-03-06T04:33:33;7.30;99.90
9762;DHT22;4920;49.594;11.022;2024-03-06T04:36:03;7.30;99.90
9762;DHT22;4920;49.594;11.022;2024-03-06T04:38:34;7.30;99.90
9762;DHT22;4920;49.594;11.022;2024-03-06T04:41:05;7.30;99.90
9762;DHT22;4920;49.594;11.022;2024-03-06T04:43:34;7.30;99.90
9762;DHT22;4920;49.594;11.022;2024-03-06T04:46:03;7.30;99.90
9762;DHT22;4920;49.594;11.022;2024-03-06T04:48:32;7.30;99.90
9762;DHT22;4920;49.594;11.022;2024-03-06T04:51:01;7.30;99.90
9762;DHT22;4920;49.594;11.022;2024-03-06T04:53:30;7.20;99.90
9762;DHT22;4920;49.594;11.022;2024-03-06T04:56:00;7.20;99.90
9762;DHT22;4920;49.594;11.022;2024-03-06T04:58:29;7.20;99.90
9762;DHT22;4920;49.594;11.022;2024-03-06T05:00:59;7.20;99.90
9762;DHT22;4920;49.594;11.022;2024-03-06T05:03:28;7.20;99.90
9762;DHT22;4920;49.594;11.022;2024-03-06T05:06:13;7.20;99.90
9762;DHT22;4920;49.594;11.022;2024-03-06T05:09:00;7.20;99.90
9762;DHT22;4920;49.594;11.022;2024-03-06T05:11:48;7.20;99.90
9762;DHT22;4920;49.594;11.022;2024-03-06T05:14:35;7.30;99.90
9762;DHT22;4920;49.594;11.022;2024-03-06T05:17:21;7.30;99.90
9762;DHT22;4920;49.594;11.022;2024-03-06T05:20:08;7.20;99.90
9762;DHT22;4920;49.594;11.022;2024-03-06T05:22:55;7.20;99.90
9762;DHT22;4920;49.594;11.022;2024-03-06T05:25:41;7.30;99.90
9762;DHT22;4920;49.594;11.022;2024-03-06T05:28:29;7.30;99.90
9762;DHT22;4920;49.594;11.022;2024-03-06T05:31:19;7.30;99.90
9762;DHT22;4920;49.594;11.022;2024-03-06T05:34:05;7.30;99.90
9762;DHT22;4920;49.594;11.022;2024-03-06T05:36:52;7.30;99.90
9762;DHT22;4920;49.594;11.022;2024-03-06T05:39:38;7.30;99.90
9762;DHT22;4920;49.594;11.022;2024-03-06T05:42:26;7.30;99.90
9762;DHT22;4920;49.594;11.022;2024-03-06T05:45:14;7.20;99.90
9762;DHT22;4920;49.594;11.022;2024-03-06T05:48:00;7.30;99.90
9762;DHT22;4920;49.594;11.022;2024-03-06T05:50:48;7.30;99.90
9762;DHT22;4920;49.594;11.022;2024-03-06T05:53:36;7.20;99.90
9762;DHT22;4920;49.594;11.022;2024-03-06T05:56:23;7.20;99.90
9762;DHT22;4920;49.594;11.022;2024-03-06T05:59:09;7.20;99.90
9762;DHT22;4920;49.594;11.022;2024-03-06T06:01:40;7.20;99.90
9762;DHT22;4920;49.594;11.022;2024-03-06T06:04:11;7.20;99.90
9762;DHT22;4920;49.594;11.022;2024-03-06T06:06:41;7.20;99.90
9762;DHT22;4920;49.594;11.022;2024-03-06T06:09:10;7.20;99.90
9762;DHT22;4920;49.594;11.022;2024-03-06T06:11:43;7.30;99.90
9762;DHT22;4920;49.594;11.022;2024-03-06T06:14:13;7.30;99.90
9762;DHT22;4920;49.594;11.022;2024-03-06T06:16:43;7.30;99.90
9762;DHT22;4920;49.594;11.022;2024-03-06T06:19:12;7.30;99.90
9762;DHT22;4920;49.594;11.022;2024-03-06T06:21:41;7.30;99.90
9762;DHT22;4920;49.594;11.022;2024-03-06T06:24:10;7.30;99.90
9762;DHT22;4920;49.594;11.022;2024-03-06T06:26:39;7.30;99.90
9762;DHT22;4920;49.594;11.022;2024-03-06T06:29:09;7.30;99.90
9762;DHT22;4920;49.594;11.022;2024-03-06T06:31:38;7.40;99.90
9762;DHT22;4920;49.594;11.022;2024-03-06T06:34:09;7.40;99.90
9762;DHT22;4920;49.594;11.022;2024-03-06T06:36:39;7.50;99.90
9762;DHT22;4920;49.594;11.022;2024-03-06T06:39:08;7.50;99.90
9762;DHT22;4920;49.594;11.022;2024-03-06T06:41:38;7.60;99.90
9762;DHT22;4920;49.594;11.022;2024-03-06T06:44:07;7.60;99.90
9762;DHT22;4920;49.594;11.022;2024-03-06T06:46:36;7.70;99.90
9762;DHT22;4920;49.594;11.022;2024-03-06T06:49:05;7.80;99.90
9762;DHT22;4920;49.594;11.022;2024-03-06T06:51:35;7.80;99.90
9762;DHT22;4920;49.594;11.022;2024-03-06T06:54:04;7.90;99.90
9762;DHT22;4920;49.594;11.022;2024-03-06T06:56:33;8.00;99.90
9762;DHT22;4920;49.594;11.022;2024-03-06T06:59:02;8.00;99.90
9762;DHT22;4920;49.594;11.022;2024-03-06T07:01:31;8.10;99.90
9762;DHT22;4920;49.594;11.022;2024-03-06T07:04:01;8.10;99.90
9762;DHT22;4920;49.594;11.022;2024-03-06T07:06:31;8.20;99.90
9762;DHT22;4920;49.594;11.022;2024-03-06T07:09:01;8.20;99.90
9762;DHT22;4920;49.594;11.022;2024-03-06T07:11:32;8.20;99.90
9762;DHT22;4920;49.594;11.022;2024-03-06T07:14:01;8.30;99.90
9762;DHT22;4920;49.594;11.022;2024-03-06T07:16:30;8.40;99.90
9762;DHT22;4920;49.594;11.022;2024-03-06T07:18:59;8.50;99.90
9762;DHT22;4920;49.594;11.022;2024-03-06T07:21:28;8.70;99.90
9762;DHT22;4920;49.594;11.022;2024-03-06T07:23:57;8.90;99.90
9762;DHT22;4920;49.594;11.022;2024-03-06T07:26:29;9.10;99.90
9762;DHT22;4920;49.594;11.022;2024-03-06T07:28:58;9.30;99.90
9762;DHT22;4920;49.594;11.022;2024-03-06T07:31:27;9.60;99.90
9762;DHT22;4920;49.594;11.022;2024-03-06T07:33:56;9.80;99.90
9762;DHT22;4920;49.594;11.022;2024-03-06T07:36:25;9.80;99.90
9762;DHT22;4920;49.594;11.022;2024-03-06T07:38:54;9.90;99.90
9762;DHT22;4920;49.594;11.022;2024-03-06T07:41:23;10.00;99.90
9762;DHT22;4920;49.594;11.022;2024-03-06T07:43:54;10.00;99.90
9762;DHT22;4920;49.594;11.022;2024-03-06T07:46:23;10.10;99.90
9762;DHT22;4920;49.594;11.022;2024-03-06T07:48:52;10.10;99.90
9762;DHT22;4920;49.594;11.022;2024-03-06T07:51:22;10.10;99.90
9762;DHT22;4920;49.594;11.022;2024-03-06T07:53:51;10.20;99.90
9762;DHT22;4920;49.594;11.022;2024-03-06T07:56:20;10.20;99.90
9762;DHT22;4920;49.594;11.022;2024-03-06T07:58:50;10.10;99.90
9762;DHT22;4920;49.594;11.022;2024-03-06T08:01:22;9.90;99.90
9762;DHT22;4920;49.594;11.022;2024-03-06T08:03:51;9.80;99.90
9762;DHT22;4920;49.594;11.022;2024-03-06T08:06:20;9.70;99.90
9762;DHT22;4920;49.594;11.022;2024-03-06T08:08:49;9.50;99.90
9762;DHT22;4920;49.594;11.022;2024-03-06T08:11:19;9.50;99.90
9762;DHT22;4920;49.594;11.022;2024-03-06T08:13:57;9.50;99.90
9762;DHT22;4920;49.594;11.022;2024-03-06T08:16:28;9.40;99.90
9762;DHT22;4920;49.594;11.022;2024-03-06T08:19:02;9.50;99.90
9762;DHT22;4920;49.594;11.022;2024-03-06T08:21:30;9.50;99.90
9762;DHT22;4920;49.594;11.022;2024-03-06T08:23:59;9.50;99.90
9762;DHT22;4920;49.594;11.022;2024-03-06T08:26:28;9.60;99.90
9762;DHT22;4920;49.594;11.022;2024-03-06T08:28:57;9.60;99.90
9762;DHT22;4920;49.594;11.022;2024-03-06T08:31:27;9.60;99.90
9762;DHT22;4920;49.594;11.022;2024-03-06T08:33:56;9.60;99.90
9762;DHT22;4920;49.594;11.022;2024-03-06T08:36:25;9.70;99.90
9762;DHT22;4920;49.594;11.022;2024-03-06T08:38:54;9.80;99.90
9762;DHT22;4920;49.594;11.022;2024-03-06T08:41:23;10.00;99.90
9762;DHT22;4920;49.594;11.022;2024-03-06T08:43:51;10.00;99.90
9762;DHT22;4920;49.594;11.022;2024-03-06T08:46:20;10.10;99.90
9762;DHT22;4920;49.594;11.022;2024-03-06T08:48:52;10.20;99.90
9762;DHT22;4920;49.594;11.022;2024-03-06T08:51:21;10.30;99.90
9762;DHT22;4920;49.594;11.022;2024-03-06T08:53:50;10.30;99.90
9762;DHT22;4920;49.594;11.022;2024-03-06T08:56:19;10.50;99.90
9762;DHT22;4920;49.594;11.022;2024-03-06T08:58:48;10.60;99.90
9762;DHT22;4920;49.594;11.022;2024-03-06T09:01:18;10.70;99.90
9762;DHT22;4920;49.594;11.022;2024-03-06T09:03:47;10.90;99.90
9762;DHT22;4920;49.594;11.022;2024-03-06T09:06:17;11.00;99.90
9762;DHT22;4920;49.594;11.022;2024-03-06T09:08:46;11.10;99.90
9762;DHT22;4920;49.594;11.022;2024-03-06T09:11:16;11.10;99.90
9762;DHT22;4920;49.594;11.022;2024-03-06T09:13:45;11.10;99.90
9762;DHT22;4920;49.594;11.022;2024-03-06T09:16:14;11.20;99.90
9762;DHT22;4920;49.594;11.022;2024-03-06T09:18:43;11.20;99.90
9762;DHT22;4920;49.594;11.022;2024-03-06T09:21:11;11.20;99.90
9762;DHT22;4920;49.594;11.022;2024-03-06T09:23:42;11.30;99.90
9762;DHT22;4920;49.594;11.022;2024-03-06T09:26:11;11.30;99.90
9762;DHT22;4920;49.594;11.022;2024-03-06T09:28:40;11.20;99.90
9762;DHT22;4920;49.594;11.022;2024-03-06T09:31:09;11.20;99.90
9762;DHT22;4920;49.594;11.022;2024-03-06T09:33:39;11.10;99.90
9762;DHT22;4920;49.594;11.022;2024-03-06T09:36:10;11.00;99.90
9762;DHT22;4920;49.594;11.022;2024-03-06T09:38:43;11.00;99.90
9762;DHT22;4920;49.594;11.022;2024-03-06T09:41:13;11.10;99.90
9762;DHT22;4920;49.594;11.022;2024-03-06T09:43:43;11.20;99.90
9762;DHT22;4920;49.594;11.022;2024-03-06T09:46:13;11.30;99.90
9762;DHT22;4920;49.594;11.022;2024-03-06T09:48:46;11.50;99.90
9762;DHT22;4920;49.594;11.022;2024-03-06T09:51:15;11.60;99.90
9762;DHT22;4920;49.594;11.022;2024-03-06T09:53:45;11.80;99.90
9762;DHT22;4920;49.594;11.022;2024-03-06T09:56:16;12.10;99.90
9762;DHT22;4920;49.594;11.022;2024-03-06T09:58:46;12.30;99.90
9762;DHT22;4920;49.594;11.022;2024-03-06T10:01:16;12.30;99.90
9762;DHT22;4920;49.594;11.022;2024-03-06T10:03:46;12.30;99.90
9762;DHT22;4920;49.594;11.022;2024-03-06T10:06:15;12.50;99.90
9762;DHT22;4920;49.594;11.022;2024-03-06T10:08:45;12.50;99.90
9762;DHT22;4920;49.594;11.022;2024-03-06T10:11:17;12.60;99.90
9762;DHT22;4920;49.594;11.022;2024-03-06T10:13:46;12.70;99.90
9762;DHT22;4920;49.594;11.022;2024-03-06T10:16:16;12.90;99.90
9762;DHT22;4920;49.594;11.022;2024-03-06T10:18:45;13.00;99.90
9762;DHT22;4920;49.594;11.022;2024-03-06T10:21:14;13.20;99.90
9762;DHT22;4920;49.594;11.022;2024-03-06T10:23:47;13.50;99.90
9762;DHT22;4920;49.594;11.022;2024-03-06T10:26:16;13.50;99.90
9762;DHT22;4920;49.594;11.022;2024-03-06T10:28:45;13.50;99.90
9762;DHT22;4920;49.594;11.022;2024-03-06T10:31:14;13.40;99.90
9762;DHT22;4920;49.594;11.022;2024-03-06T10:33:43;13.40;99.90
9762;DHT22;4920;49.594;11.022;2024-03-06T10:36:12;13.30;99.90
9762;DHT22;4920;49.594;11.022;2024-03-06T10:38:42;13.50;99.90
9762;DHT22;4920;49.594;11.022;2024-03-06T10:41:14;13.40;99.90
9762;DHT22;4920;49.594;11.022;2024-03-06T10:43:49;13.30;99.90
9762;DHT22;4920;49.594;11.022;2024-03-06T10:46:20;13.30;99.90
9762;DHT22;4920;49.594;11.022;2024-03-06T10:48:50;13.20;99.90
9762;DHT22;4920;49.594;11.022;2024-03-06T10:51:21;13.20;99.90
9762;DHT22;4920;49.594;11.022;2024-03-06T10:53:50;13.10;99.90
9762;DHT22;4920;49.594;11.022;2024-03-06T10:56:22;12.90;99.90
9762;DHT22;4920;49.594;11.022;2024-03-06T10:58:53;12.70;99.90
9762;DHT22;4920;49.594;11.022;2024-03-06T11:01:24;12.50;99.90
9762;DHT22;4920;49.594;11.022;2024-03-06T11:03:54;12.30;99.90
9762;DHT22;4920;49.594;11.022;2024-03-06T11:06:25;12.10;99.90
9762;DHT22;4920;49.594;11.022;2024-03-06T11:08:55;12.10;99.90
9762;DHT22;4920;49.594;11.022;2024-03-06T11:11:25;12.00;99.90
9762;DHT22;4920;49.594;11.022;2024-03-06T11:13:55;11.80;99.90
9762;DHT22;4920;49.594;11.022;2024-03-06T11:16:29;11.70;99.90
9762;DHT22;4920;49.594;11.022;2024-03-06T11:19:07;11.70;99.90
9762;DHT22;4920;49.594;11.022;2024-03-06T11:21:46;11.60;99.90
9762;DHT22;4920;49.594;11.022;2024-03-06T11:24:20;11.50;99.90
9762;DHT22;4920;49.594;11.022;2024-03-06T11:26:55;11.50;99.90
9762;DHT22;4920;49.594;11.022;2024-03-06T11:30:02;11.50;99.90
9762;DHT22;4920;49.594;11.022;2024-03-06T11:32:32;11.50;99.90
9762;DHT22;4920;49.594;11.022;2024-03-06T11:35:02;11.40;99.90
9762;DHT22;4920;49.594;11.022;2024-03-06T11:37:34;11.40;99.90
9762;DHT22;4920;49.594;11.022;2024-03-06T11:40:04;11.50;99.90
9762;DHT22;4920;49.594;11.022;2024-03-06T11:42:37;11.50;99.90
9762;DHT22;4920;49.594;11.022;2024-03-06T11:45:16;11.60;99.90
9762;DHT22;4920;49.594;11.022;2024-03-06T11:47:56;11.60;99.90
9762;DHT22;4920;49.594;11.022;2024-03-06T11:50:27;11.50;99.90
9762;DHT22;4920;49.594;11.022;2024-03-06T11:52:57;11.40;99.90
9762;DHT22;4920;49.594;11.022;2024-03-06T11:55:26;11.30;99.90
9762;DHT22;4920;49.594;11.022;2024-03-06T11:57:57;11.20;99.90
9762;DHT22;4920;49.594;11.022;2024-03-06T12:00:26;11.20;99.90
9762;DHT22;4920;49.594;11.022;2024-03-06T12:02:55;11.20;99.90
9762;DHT22;4920;49.594;11.022;2024-03-06T12:05:24;11.10;99.90
9762;DHT22;4920;49.594;11.022;2024-03-06T12:07:54;11.10;99.90
9762;DHT22;4920;49.594;11.022;2024-03-06T12:10:23;11.20;99.90
9762;DHT22;4920;49.594;11.022;2024-03-06T12:12:52;11.30;99.90
9762;DHT22;4920;49.594;11.022;2024-03-06T12:15:23;11.40;99.90
9762;DHT22;4920;49.594;11.022;2024-03-06T12:17:52;11.50;99.90
9762;DHT22;4920;49.594;11.022;2024-03-06T12:20:23;11.50;99.90
9762;DHT22;4920;49.594;11.022;2024-03-06T12:22:54;11.50;99.90
9762;DHT22;4920;49.594;11.022;2024-03-06T12:25:24;11.50;99.90
9762;DHT22;4920;49.594;11.022;2024-03-06T12:27:54;11.60;99.90
9762;DHT22;4920;49.594;11.022;2024-03-06T12:30:25;11.70;99.90
9762;DHT22;4920;49.594;11.022;2024-03-06T12:32:58;11.80;99.90
9762;DHT22;4920;49.594;11.022;2024-03-06T12:35:27;11.90;99.90
9762;DHT22;4920;49.594;11.022;2024-03-06T12:37:56;12.00;99.90
9762;DHT22;4920;49.594;11.022;2024-03-06T12:40:26;12.10;99.90
9762;DHT22;4920;49.594;11.022;2024-03-06T12:42:56;12.20;99.90
9762;DHT22;4920;49.594;11.022;2024-03-06T12:45:26;12.30;99.90
9762;DHT22;4920;49.594;11.022;2024-03-06T12:47:55;12.50;99.90
9762;DHT22;4920;49.594;11.022;2024-03-06T12:50:24;12.70;99.90
9762;DHT22;4920;49.594;11.022;2024-03-06T12:52:53;13.00;99.90
9762;DHT22;4920;49.594;11.022;2024-03-06T12:55:22;13.30;99.90
9762;DHT22;4920;49.594;11.022;2024-03-06T12:57:52;13.60;99.90
9762;DHT22;4920;49.594;11.022;2024-03-06T13:00:21;14.00;99.90
9762;DHT22;4920;49.594;11.022;2024-03-06T13:02:51;14.50;99.90
9762;DHT22;4920;49.594;11.022;2024-03-06T13:05:20;14.60;99.90
9762;DHT22;4920;49.594;11.022;2024-03-06T13:07:49;14.40;99.90
9762;DHT22;4920;49.594;11.022;2024-03-06T13:10:18;14.20;99.90
9762;DHT22;4920;49.594;11.022;2024-03-06T13:12:49;13.90;99.90
9762;DHT22;4920;49.594;11.022;2024-03-06T13:15:21;13.80;99.90
9762;DHT22;4920;49.594;11.022;2024-03-06T13:17:51;13.60;99.90
9762;DHT22;4920;49.594;11.022;2024-03-06T13:20:20;13.40;99.90
9762;DHT22;4920;49.594;11.022;2024-03-06T13:22:49;13.30;99.90
9762;DHT22;4920;49.594;11.022;2024-03-06T13:25:18;13.30;99.90
9762;DHT22;4920;49.594;11.022;2024-03-06T13:27:48;13.10;99.90
9762;DHT22;4920;49.594;11.022;2024-03-06T13:30:18;13.10;99.90
9762;DHT22;4920;49.594;11.022;2024-03-06T13:32:47;13.00;99.90
9762;DHT22;4920;49.594;11.022;2024-03-06T13:35:18;13.10;99.90
9762;DHT22;4920;49.594;11.022;2024-03-06T13:37:47;13.20;99.90
9762;DHT22;4920;49.594;11.022;2024-03-06T13:40:17;13.30;99.90
9762;DHT22;4920;49.594;11.022;2024-03-06T13:42:46;13.30;99.90
9762;DHT22;4920;49.594;11.022;2024-03-06T13:45:15;13.20;99.90
9762;DHT22;4920;49.594;11.022;2024-03-06T13:47:45;13.10;99.90
9762;DHT22;4920;49.594;11.022;2024-03-06T13:50:15;13.10;99.90
9762;DHT22;4920;49.594;11.022;2024-03-06T13:52:47;13.00;99.90
9762;DHT22;4920;49.594;11.022;2024-03-06T13:55:17;13.10;99.90
9762;DHT22;4920;49.594;11.022;2024-03-06T13:57:46;13.00;99.90
9762;DHT22;4920;49.594;11.022;2024-03-06T14:00:16;13.10;99.90
9762;DHT22;4920;49.594;11.022;2024-03-06T14:02:46;13.00;99.90
9762;DHT22;4920;49.594;11.022;2024-03-06T14:05:15;13.10;99.90
9762;DHT22;4920;49.594;11.022;2024-03-06T14:07:47;13.10;99.90
9762;DHT22;4920;49.594;11.022;2024-03-06T14:10:16;13.00;99.90
9762;DHT22;4920;49.594;11.022;2024-03-06T14:12:46;12.90;99.90
9762;DHT22;4920;49.594;11.022;2024-03-06T14:15:19;12.80;99.90
9762;DHT22;4920;49.594;11.022;2024-03-06T14:17:49;12.80;99.90
9762;DHT22;4920;49.594;11.022;2024-03-06T14:20:19;12.70;99.90
9762;DHT22;4920;49.594;11.022;2024-03-06T14:22:49;12.70;99.90
9762;DHT22;4920;49.594;11.022;2024-03-06T14:25:18;12.50;99.90
9762;DHT22;4920;49.594;11.022;2024-03-06T14:27:48;12.40;99.90
9762;DHT22;4920;49.594;11.022;2024-03-06T14:30:17;12.50;99.90
9762;DHT22;4920;49.594;11.022;2024-03-06T14:32:47;12.40;99.90
9762;DHT22;4920;49.594;11.022;2024-03-06T14:35:16;12.40;99.90
9762;DHT22;4920;49.594;11.022;2024-03-06T14:37:45;12.40;99.90
9762;DHT22;4920;49.594;11.022;2024-03-06T14:40:17;12.40;99.90
9762;DHT22;4920;49.594;11.022;2024-03-06T14:42:46;12.20;99.90
9762;DHT22;4920;49.594;11.022;2024-03-06T14:45:18;12.20;99.90
9762;DHT22;4920;49.594;11.022;2024-03-06T14:47:47;12.20;99.90
9762;DHT22;4920;49.594;11.022;2024-03-06T14:50:16;12.30;99.90
9762;DHT22;4920;49.594;11.022;2024-03-06T14:52:45;12.30;99.90
9762;DHT22;4920;49.594;11.022;2024-03-06T14:55:14;12.30;99.90
9762;DHT22;4920;49.594;11.022;2024-03-06T14:57:45;12.20;99.90
9762;DHT22;4920;49.594;11.022;2024-03-06T15:00:14;12.20;99.90
9762;DHT22;4920;49.594;11.022;2024-03-06T15:02:48;12.20;99.90
9762;DHT22;4920;49.594;11.022;2024-03-06T15:05:17;12.20;99.90
9762;DHT22;4920;49.594;11.022;2024-03-06T15:07:46;12.20;99.90
9762;DHT22;4920;49.594;11.022;2024-03-06T15:10:15;12.20;99.90
9762;DHT22;4920;49.594;11.022;2024-03-06T15:12:46;12.30;99.90
9762;DHT22;4920;49.594;11.022;2024-03-06T15:15:15;12.30;99.90
9762;DHT22;4920;49.594;11.022;2024-03-06T15:17:44;12.40;99.90
9762;DHT22;4920;49.594;11.022;2024-03-06T15:20:14;12.30;99.90
9762;DHT22;4920;49.594;11.022;2024-03-06T15:22:44;12.20;99.90
9762;DHT22;4920;49.594;11.022;2024-03-06T15:25:13;12.10;99.90
9762;DHT22;4920;49.594;11.022;2024-03-06T15:27:42;12.00;99.90
9762;DHT22;4920;49.594;11.022;2024-03-06T15:30:13;11.80;99.90
9762;DHT22;4920;49.594;11.022;2024-03-06T15:32:44;11.70;99.90
9762;DHT22;4920;49.594;11.022;2024-03-06T15:35:13;11.60;99.90
9762;DHT22;4920;49.594;11.022;2024-03-06T15:37:42;11.70;99.90
9762;DHT22;4920;49.594;11.022;2024-03-06T15:40:11;11.70;99.90
9762;DHT22;4920;49.594;11.022;2024-03-06T15:42:40;11.70;99.90
9762;DHT22;4920;49.594;11.022;2024-03-06T15:45:13;11.80;99.90
9762;DHT22;4920;49.594;11.022;2024-03-06T15:47:42;11.90;99.90
9762;DHT22;4920;49.594;11.022;2024-03-06T15:50:12;11.90;99.90
9762;DHT22;4920;49.594;11.022;2024-03-06T15:52:41;11.90;99.90
9762;DHT22;4920;49.594;11.022;2024-03-06T15:55:11;12.00;99.90
9762;DHT22;4920;49.594;11.022;2024-03-06T15:57:40;12.00;99.90
9762;DHT22;4920;49.594;11.022;2024-03-06T16:00:09;11.90;99.90
9762;DHT22;4920;49.594;11.022;2024-03-06T16:02:44;11.70;99.90
9762;DHT22;4920;49.594;11.022;2024-03-06T16:05:13;11.50;99.90
9762;DHT22;4920;49.594;11.022;2024-03-06T16:07:42;11.40;99.90
9762;DHT22;4920;49.594;11.022;2024-03-06T16:10:25;11.30;99.90
9762;DHT22;4920;49.594;11.022;2024-03-06T16:12:54;11.20;99.90
9762;DHT22;4920;49.594;11.022;2024-03-06T16:15:24;11.10;99.90
9762;DHT22;4920;49.594;11.022;2024-03-06T16:17:54;11.00;99.90